createdAt,value
2018-05-29T00:05:52.075Z,4.57
2018-05-29T00:11:47.091Z,4.56
2018-05-29T00:17:42.116Z,5.3
2018-05-29T00:23:37.099Z,4.44
2018-05-29T00:29:32.118Z,4.26
2018-05-29T00:35:27.120Z,4
2018-05-29T00:41:22.090Z,4.65
2018-05-29T00:47:17.217Z,4.4
2018-05-29T00:53:12.074Z,5.83
2018-05-29T00:59:07.133Z,5.62
2018-05-29T01:05:02.125Z,6.71
2018-05-29T01:10:57.122Z,5.03
2018-05-29T01:16:52.094Z,4.86
2018-05-29T01:22:47.091Z,4.49
2018-05-29T01:28:42.092Z,4.05
2018-05-29T01:34:37.094Z,4.42
2018-05-29T01:40:32.100Z,4.84
2018-05-29T01:46:27.126Z,4.73
2018-05-29T01:52:22.136Z,4.36
2018-05-29T01:58:17.118Z,4.57
2018-05-29T02:04:12.117Z,4.44
2018-05-29T02:10:07.122Z,4.4
2018-05-29T02:16:02.142Z,4.27
2018-05-29T02:21:57.120Z,4.5
2018-05-29T02:27:52.106Z,4.5
2018-05-29T02:33:47.169Z,5.15
2018-05-29T02:39:42.114Z,3.91
2018-05-29T02:45:37.155Z,4.35
2018-05-29T02:51:32.141Z,4.58
2018-05-29T02:57:27.164Z,4.27
2018-05-29T03:03:22.152Z,4.17
2018-05-29T03:09:17.127Z,4.59
2018-05-29T03:15:12.612Z,5.25
2018-05-29T03:21:07.139Z,4.2
2018-05-29T03:27:02.133Z,4.38
2018-05-29T03:32:57.216Z,5.02
2018-05-29T03:38:52.151Z,4.66
2018-05-29T03:44:47.158Z,4.71
2018-05-29T03:50:42.134Z,5.12
2018-05-29T03:56:37.151Z,5.04
2018-05-29T04:02:32.130Z,5.16
2018-05-29T04:08:27.113Z,4.63
2018-05-29T04:14:22.222Z,4.68
2018-05-29T04:20:17.306Z,4.97
2018-05-29T04:26:12.169Z,5.6
2018-05-29T04:32:07.123Z,4.47
2018-05-29T04:38:02.412Z,5
2018-05-29T04:43:57.228Z,6.33
2018-05-29T04:49:52.193Z,5.67
2018-05-29T04:55:47.335Z,5.28
2018-05-29T05:01:42.546Z,4.75
2018-05-29T05:07:37.156Z,6.01
2018-05-29T05:13:32.138Z,6.85
2018-05-29T05:19:27.200Z,6.98
2018-05-29T05:25:22.422Z,7.51
2018-05-29T05:31:17.272Z,7.34
2018-05-29T05:37:12.149Z,5.62
2018-05-29T05:43:07.275Z,7.23
2018-05-29T05:49:02.134Z,7.52
2018-05-29T05:54:57.196Z,6.99
2018-05-29T06:00:52.184Z,7.34
2018-05-29T06:06:47.474Z,7.72
2018-05-29T06:12:42.514Z,7.74
2018-05-29T06:18:37.187Z,8.98
2018-05-29T06:24:32.167Z,9.07
2018-05-29T06:30:27.175Z,8.24
2018-05-29T06:36:22.173Z,8.71
2018-05-29T06:42:17.195Z,8.28
2018-05-29T06:48:12.217Z,8.41
2018-05-29T06:54:07.210Z,9.77
2018-05-29T07:00:02.212Z,9.95
2018-05-29T07:05:57.177Z,10.27
2018-05-29T07:11:52.282Z,10.15
2018-05-29T07:17:47.173Z,10.3
2018-05-29T07:23:42.162Z,11.03
2018-05-29T07:29:37.191Z,10.04
2018-05-29T07:35:32.195Z,9.47
2018-05-29T07:41:27.169Z,8.39
2018-05-29T07:47:22.234Z,8.82
2018-05-29T07:53:17.171Z,8.07
2018-05-29T07:59:12.212Z,8.69
2018-05-29T08:05:07.210Z,8.57
2018-05-29T08:11:02.225Z,6.59
2018-05-29T08:16:57.173Z,6.31
2018-05-29T08:22:52.212Z,5.67
2018-05-29T08:28:47.200Z,3.67
2018-05-29T08:34:42.225Z,4.01
2018-05-29T08:40:37.222Z,4.91
2018-05-29T08:46:32.244Z,4.33
2018-05-29T08:52:27.223Z,4.8
2018-05-29T08:58:22.215Z,4.78
2018-05-29T09:04:17.288Z,5.13
2018-05-29T09:10:12.356Z,4.89
2018-05-29T09:16:07.253Z,4.83
2018-05-29T09:22:02.285Z,4.63
2018-05-29T09:27:57.222Z,4.86
2018-05-29T09:33:52.226Z,4.87
2018-05-29T09:39:47.258Z,3.95
2018-05-29T09:45:42.304Z,4.03
2018-05-29T09:51:37.279Z,4.11
2018-05-29T09:57:32.271Z,4.4
2018-05-29T10:03:27.218Z,4.59
2018-05-29T10:09:22.259Z,4.83
2018-05-29T10:15:17.327Z,4.72
2018-05-29T10:21:12.364Z,4.8
2018-05-29T10:27:07.280Z,5.47
2018-05-29T10:33:02.251Z,5.03
2018-05-29T10:38:57.236Z,3.63
2018-05-29T10:44:52.268Z,3
2018-05-29T10:50:47.287Z,3.27
2018-05-29T10:56:42.245Z,3.67
2018-05-29T11:02:37.247Z,4.32
2018-05-29T11:08:32.246Z,4.34
2018-05-29T11:14:27.285Z,3.6
2018-05-29T11:20:22.324Z,4.33
2018-05-29T11:26:17.275Z,4.13
2018-05-29T11:32:12.319Z,4.4
2018-05-29T11:38:07.268Z,4.46
2018-05-29T11:44:02.293Z,4.59
2018-05-29T11:49:57.348Z,4.5
2018-05-29T11:55:52.319Z,4.02
2018-05-29T12:01:47.348Z,3.86
2018-05-29T12:07:42.360Z,3.98
2018-05-29T12:13:37.359Z,4.27
2018-05-29T12:19:32.286Z,4.05
2018-05-29T12:25:27.345Z,3.53
2018-05-29T12:31:22.275Z,4.12
2018-05-29T12:37:17.313Z,4.6
2018-05-29T12:43:12.346Z,3.51
2018-05-29T12:49:07.387Z,3.68
2018-05-29T12:55:02.281Z,3.47
2018-05-29T13:00:57.326Z,3.81
2018-05-29T13:06:52.396Z,4.04
2018-05-29T13:12:47.325Z,3.24
2018-05-29T13:18:42.296Z,3.35
2018-05-29T13:24:37.344Z,2.73
2018-05-29T13:30:32.337Z,3.25
2018-05-29T13:36:27.345Z,3.19
2018-05-29T13:42:22.334Z,3.43
2018-05-29T13:48:17.367Z,2.51
2018-05-29T13:54:12.324Z,2.76
2018-05-29T14:00:07.342Z,2.44
2018-05-29T14:06:02.349Z,2.42
2018-05-29T14:11:57.321Z,2.29
2018-05-29T14:17:52.430Z,2.84
2018-05-29T14:23:47.385Z,2.56
2018-05-29T14:29:42.335Z,2.61
2018-05-29T14:35:37.329Z,2.8
2018-05-29T14:41:32.383Z,2.33
2018-05-29T14:47:27.340Z,3.14
2018-05-29T14:53:22.417Z,2.47
2018-05-29T14:59:17.413Z,2.35
2018-05-29T15:05:12.480Z,2.85
2018-05-29T15:11:07.374Z,2.65
2018-05-29T15:17:02.409Z,2.34
2018-05-29T15:22:57.363Z,3.07
2018-05-29T15:28:52.438Z,3.31
2018-05-29T15:34:47.460Z,2.98
2018-05-29T15:40:42.449Z,3.07
2018-05-29T15:46:37.388Z,3
2018-05-29T15:52:32.398Z,3.37
2018-05-29T15:58:27.405Z,3.25
2018-05-29T16:04:22.396Z,2.64
2018-05-29T16:10:17.423Z,3.02
2018-05-29T16:16:12.389Z,2.78
2018-05-29T16:22:07.416Z,3.26
2018-05-29T16:28:02.411Z,2.86
2018-05-29T16:33:57.403Z,3.03
2018-05-29T16:39:52.395Z,3.3
2018-05-29T16:45:47.417Z,3.09
2018-05-29T16:51:42.401Z,4.73
2018-05-29T16:57:37.391Z,3.59
2018-05-29T17:03:32.465Z,3.44
2018-05-29T17:09:27.408Z,3.4
2018-05-29T17:15:22.545Z,3.31
2018-05-29T17:21:17.562Z,5.13
2018-05-29T17:27:12.441Z,4.73
2018-05-29T17:33:07.433Z,4.45
2018-05-29T17:39:02.423Z,5.3
2018-05-29T17:44:57.466Z,5.29
2018-05-29T17:50:52.442Z,5.88
2018-05-29T17:56:47.472Z,6.03
2018-05-29T18:02:42.430Z,6.14
2018-05-29T18:08:37.445Z,4.98
2018-05-29T18:14:32.433Z,5.07
2018-05-29T18:20:27.456Z,5.07
2018-05-29T18:26:22.488Z,4.76
2018-05-29T18:32:17.444Z,5.65
2018-05-29T18:38:12.493Z,4.3
2018-05-29T18:44:07.447Z,3.29
2018-05-29T18:50:02.905Z,3.85
2018-05-29T18:55:57.487Z,3.63
2018-05-29T19:01:52.453Z,3.4
2018-05-29T19:07:47.501Z,2.9
2018-05-29T19:13:42.447Z,3.11
2018-05-29T19:19:37.479Z,3.35
2018-05-29T19:25:32.529Z,3.18
2018-05-29T19:31:27.501Z,3.24
2018-05-29T19:37:22.459Z,3.81
2018-05-29T19:43:17.473Z,3.16
2018-05-29T19:49:12.507Z,2.98
2018-05-29T19:55:07.521Z,2.96
2018-05-29T20:01:02.492Z,3.07
2018-05-29T20:06:57.540Z,2.71
2018-05-29T20:12:52.510Z,3.15
2018-05-29T20:18:47.561Z,3.11
2018-05-29T20:24:42.502Z,3.23
2018-05-29T20:30:37.475Z,2.89
2018-05-29T20:36:32.505Z,3.34
2018-05-29T20:42:27.497Z,3.36
2018-05-29T20:48:22.496Z,3.63
2018-05-29T20:54:17.477Z,3.36
2018-05-29T21:00:12.564Z,3.91
2018-05-29T21:06:07.472Z,4.31
2018-05-29T21:12:02.569Z,3.85
2018-05-29T21:17:57.553Z,4.14
2018-05-29T21:23:52.551Z,4.12
2018-05-29T21:29:47.532Z,4.38
2018-05-29T21:35:42.521Z,4.39
2018-05-29T21:41:37.550Z,5.02
2018-05-29T21:47:32.543Z,4.17
2018-05-29T21:53:27.543Z,4.7
2018-05-29T21:59:22.561Z,4.4
2018-05-29T22:05:17.576Z,4.22
2018-05-29T22:11:12.556Z,4.11
2018-05-29T22:17:07.550Z,3.88
2018-05-29T22:23:02.591Z,4.14
2018-05-29T22:28:57.581Z,4.12
2018-05-29T22:34:52.571Z,4.79
2018-05-29T22:40:47.530Z,4.67
2018-05-29T22:46:42.555Z,4.84
2018-05-29T22:52:37.630Z,4.14
2018-05-29T22:58:32.555Z,5.54
2018-05-29T23:04:27.569Z,5.04
2018-05-29T23:10:22.540Z,5.04
2018-05-29T23:16:17.585Z,5.27
2018-05-29T23:22:12.599Z,5.21
2018-05-29T23:28:07.574Z,4.3
2018-05-29T23:34:02.535Z,4.32
2018-05-29T23:39:57.556Z,4.58
2018-05-29T23:45:52.564Z,4.75
2018-05-29T23:51:47.592Z,5.63
2018-05-29T23:57:42.606Z,4.98
